Time;durP1;ratioP1;P1;durP2;ratioP2;P2;SDS_P1;SDS_P2;PMS_P1;PMS_P2;Temp;Humidity;BMP_temperature;BMP_pressure;BME280_temperature;BME280_humidity;BME280_pressure;Samples;Min_cycle;Max_cycle;Signal;HPM_P1;HPM_P2
2021/12/31 00:01:39;;;;;;;11.82;11.02;;;;;;;;;;10356747;28;20281;-77
2021/12/31 00:06:42;;;;;;;13.10;12.18;;;;;;;;;;10382677;28;20302;-77
2021/12/31 00:11:43;;;;;;;14.50;11.57;;;;;;;;;;10368444;28;20313;-77
2021/12/31 00:16:44;;;;;;;7.47;6.78;;;;;;;;;;10373360;28;20200;-77
2021/12/31 00:21:47;;;;;;;19.45;18.10;;;;;;;;;;10358598;28;20215;-77
2021/12/31 00:26:49;;;;;;;17.20;16.17;;;;;;;;;;10366684;28;20219;-77
2021/12/31 00:31:50;;;;;;;24.17;23.08;;;;;;;;;;10355187;28;20215;-77
2021/12/31 00:36:51;;;;;;;34.33;32.60;;;;;;;;;;10371259;28;20280;-77
2021/12/31 00:41:51;;;;;;;14.10;13.45;;;;;;;;;;10350733;28;20840;-78
2021/12/31 00:46:52;;;;;;;11.32;10.82;;;;;;;;;;10367128;28;20212;-77
2021/12/31 00:51:53;;;;;;;17.40;16.65;;;;;;;;;;10369327;28;20196;-78
2021/12/31 00:57:02;;;;;;;11.18;10.57;;;;;;;;;;10371298;28;20215;-78
2021/12/31 01:02:05;;;;;;;14.45;13.55;;;;;;;;;;10384595;28;20211;-78
2021/12/31 01:07:06;;;;;;;17.08;16.23;;;;;;;;;;10355988;28;20224;-77
2021/12/31 01:12:09;;;;;;;18.30;17.40;;;;;;;;;;10362834;28;20214;-79
2021/12/31 01:17:14;;;;;;;28.85;27.15;;;;;;;;;;10368393;28;20266;-78
2021/12/31 01:22:21;;;;;;;5.18;4.68;;;;;;;;;;10368578;28;20362;-77
2021/12/31 01:27:22;;;;;;;8.88;8.57;;;;;;;;;;10367755;28;20664;-78
2021/12/31 01:32:24;;;;;;;25.63;24.30;;;;;;;;;;10363808;28;20215;-77
2021/12/31 01:37:25;;;;;;;34.30;32.70;;;;;;;;;;10357805;28;20271;-77
2021/12/31 01:42:32;;;;;;;44.42;42.30;;;;;;;;;;10359093;28;20262;-78
2021/12/31 01:47:36;;;;;;;48.28;45.65;;;;;;;;;;10361138;28;20227;-77
2021/12/31 01:52:40;;;;;;;42.22;40.10;;;;;;;;;;10343514;28;20195;-77
2021/12/31 01:57:42;;;;;;;33.08;31.38;;;;;;;;;;10362772;28;20207;-77
2021/12/31 02:02:46;;;;;;;58.97;56.35;;;;;;;;;;10360477;28;20622;-77
2021/12/31 02:07:47;;;;;;;12.43;11.82;;;;;;;;;;10346464;28;20216;-77
2021/12/31 02:12:49;;;;;;;5.80;4.82;;;;;;;;;;10354585;28;20196;-77
2021/12/31 02:17:50;;;;;;;5.15;4.82;;;;;;;;;;10362196;28;20364;-77
2021/12/31 02:22:55;;;;;;;4.80;4.60;;;;;;;;;;10348299;28;20262;-77
2021/12/31 02:27:56;;;;;;;4.28;3.92;;;;;;;;;;10358000;28;20215;-77
2021/12/31 02:32:57;;;;;;;4.82;3.92;;;;;;;;;;10354066;28;20227;-77
2021/12/31 02:37:58;;;;;;;5.03;4.25;;;;;;;;;;10353817;28;20298;-77
2021/12/31 02:43:00;;;;;;;4.70;4.30;;;;;;;;;;10336437;28;20207;-78
2021/12/31 02:48:03;;;;;;;4.95;4.75;;;;;;;;;;10358004;28;20216;-78
2021/12/31 02:53:08;;;;;;;5.00;4.78;;;;;;;;;;10346092;28;20223;-78
2021/12/31 02:58:09;;;;;;;4.50;4.40;;;;;;;;;;10364812;28;20215;-77
2021/12/31 03:03:11;;;;;;;3.70;3.60;;;;;;;;;;10348835;28;20216;-78
2021/12/31 03:08:12;;;;;;;3.90;3.80;;;;;;;;;;10358706;28;20261;-78
2021/12/31 03:13:15;;;;;;;4.43;4.22;;;;;;;;;;10358400;28;20211;-78
2021/12/31 03:18:17;;;;;;;4.35;4.18;;;;;;;;;;10370631;28;20281;-77
2021/12/31 03:23:18;;;;;;;4.22;4.13;;;;;;;;;;10368971;28;20207;-77
2021/12/31 03:28:19;;;;;;;5.85;5.65;;;;;;;;;;10353986;28;20236;-77
2021/12/31 03:33:20;;;;;;;5.47;5.28;;;;;;;;;;10369093;28;20211;-78
2021/12/31 03:38:21;;;;;;;4.70;4.53;;;;;;;;;;10369797;28;20200;-78
2021/12/31 03:43:22;;;;;;;5.00;4.70;;;;;;;;;;10389135;28;20200;-79
2021/12/31 03:48:23;;;;;;;5.50;5.20;;;;;;;;;;10382834;28;20211;-79
2021/12/31 03:53:24;;;;;;;5.88;5.18;;;;;;;;;;10381687;28;20203;-79
2021/12/31 03:58:26;;;;;;;5.00;4.80;;;;;;;;;;10381280;28;20724;-79
2021/12/31 04:03:27;;;;;;;4.88;4.57;;;;;;;;;;10386153;28;20223;-80
2021/12/31 04:08:28;;;;;;;4.95;4.65;;;;;;;;;;10384145;28;20477;-79
2021/12/31 04:13:28;;;;;;;4.45;4.10;;;;;;;;;;10360199;28;20202;-80
2021/12/31 04:18:29;;;;;;;4.30;3.90;;;;;;;;;;10387160;28;20191;-79
2021/12/31 04:23:37;;;;;;;3.47;3.28;;;;;;;;;;10383852;28;20204;-79
2021/12/31 04:28:38;;;;;;;3.92;3.83;;;;;;;;;;10381068;28;20226;-81
2021/12/31 04:33:39;;;;;;;3.38;3.08;;;;;;;;;;10378953;28;20298;-79
2021/12/31 04:38:40;;;;;;;2.78;2.58;;;;;;;;;;10380838;28;20866;-79
2021/12/31 04:43:41;;;;;;;2.30;2.20;;;;;;;;;;10379553;28;20215;-78
2021/12/31 04:48:42;;;;;;;1.85;1.70;;;;;;;;;;10364800;28;20537;-79
2021/12/31 04:53:43;;;;;;;3.08;1.70;;;;;;;;;;10379594;28;20230;-78
2021/12/31 04:58:44;;;;;;;1.48;1.48;;;;;;;;;;10373336;28;20196;-78
2021/12/31 05:03:45;;;;;;;1.58;1.52;;;;;;;;;;10376090;28;20234;-78
2021/12/31 05:08:46;;;;;;;5.57;1.40;;;;;;;;;;10365819;28;20245;-78
2021/12/31 05:13:48;;;;;;;1.67;1.42;;;;;;;;;;10369953;28;20279;-78
2021/12/31 05:18:49;;;;;;;1.33;1.25;;;;;;;;;;10377604;28;20286;-78
2021/12/31 05:23:50;;;;;;;1.88;1.33;;;;;;;;;;10343637;28;20218;-78
2021/12/31 05:28:51;;;;;;;1.50;1.40;;;;;;;;;;10343255;28;20247;-77
2021/12/31 05:33:52;;;;;;;1.40;1.40;;;;;;;;;;10362107;28;20306;-78
2021/12/31 05:38:53;;;;;;;1.95;1.75;;;;;;;;;;10367436;28;20322;-78
2021/12/31 05:43:54;;;;;;;5.25;1.88;;;;;;;;;;10363816;28;20207;-77
2021/12/31 05:48:55;;;;;;;3.15;2.28;;;;;;;;;;10356640;28;20203;-77
2021/12/31 05:53:56;;;;;;;2.40;2.20;;;;;;;;;;10361667;28;20223;-77
2021/12/31 05:58:57;;;;;;;2.55;1.90;;;;;;;;;;10361484;28;20364;-77
2021/12/31 06:03:59;;;;;;;4.82;1.83;;;;;;;;;;10359802;28;20226;-77
2021/12/31 06:09:00;;;;;;;1.90;1.83;;;;;;;;;;10358299;28;20214;-77
2021/12/31 06:14:04;;;;;;;1.75;1.65;;;;;;;;;;10352319;28;20293;-77
2021/12/31 06:19:05;;;;;;;4.88;2.45;;;;;;;;;;10353750;28;20204;-77
2021/12/31 06:24:07;;;;;;;2.28;2.08;;;;;;;;;;10343366;28;20215;-79
2021/12/31 06:29:08;;;;;;;2.20;1.95;;;;;;;;;;10380078;28;20228;-79
2021/12/31 06:34:09;;;;;;;1.92;1.92;;;;;;;;;;10384707;28;20631;-79
2021/12/31 06:39:10;;;;;;;4.25;2.10;;;;;;;;;;10384257;28;20223;-79
2021/12/31 06:44:11;;;;;;;2.10;1.90;;;;;;;;;;10378225;28;20308;-77
2021/12/31 06:49:13;;;;;;;2.85;2.03;;;;;;;;;;10361673;28;20259;-77
2021/12/31 06:54:14;;;;;;;5.80;2.15;;;;;;;;;;10355973;28;20312;-77
2021/12/31 06:59:15;;;;;;;3.58;1.90;;;;;;;;;;10364584;28;20263;-79
2021/12/31 07:04:16;;;;;;;1.90;1.80;;;;;;;;;;10393327;28;20219;-80
2021/12/31 07:09:17;;;;;;;1.88;1.45;;;;;;;;;;10384889;28;20307;-79
2021/12/31 07:14:18;;;;;;;3.13;1.75;;;;;;;;;;10382065;28;20307;-79
2021/12/31 07:19:19;;;;;;;1.65;1.58;;;;;;;;;;10389528;28;20199;-79
2021/12/31 07:24:20;;;;;;;1.55;1.45;;;;;;;;;;10378991;28;20211;-79
2021/12/31 07:29:21;;;;;;;1.38;1.38;;;;;;;;;;10387925;28;20219;-77
2021/12/31 07:34:22;;;;;;;3.05;1.65;;;;;;;;;;10363480;28;20216;-77
2021/12/31 07:39:24;;;;;;;3.40;1.50;;;;;;;;;;10348703;28;20199;-77
2021/12/31 07:44:25;;;;;;;3.85;1.20;;;;;;;;;;10360467;28;20627;-77
2021/12/31 07:49:26;;;;;;;1.30;1.20;;;;;;;;;;10363028;28;20231;-77
2021/12/31 07:54:27;;;;;;;4.35;1.30;;;;;;;;;;10342109;28;20682;-77
2021/12/31 07:59:28;;;;;;;1.42;1.42;;;;;;;;;;10360325;28;20199;-78
2021/12/31 08:04:29;;;;;;;1.13;0.82;;;;;;;;;;10355913;28;20293;-77
2021/12/31 08:09:31;;;;;;;2.17;0.80;;;;;;;;;;10359169;28;20223;-77
2021/12/31 08:14:32;;;;;;;1.05;0.70;;;;;;;;;;10354846;28;20204;-77
2021/12/31 08:19:33;;;;;;;2.78;0.80;;;;;;;;;;10348393;28;20199;-77
2021/12/31 08:24:34;;;;;;;1.13;1.13;;;;;;;;;;10353050;28;20311;-77
2021/12/31 08:29:35;;;;;;;3.17;1.10;;;;;;;;;;10334171;28;20227;-77
2021/12/31 08:34:36;;;;;;;2.28;0.70;;;;;;;;;;10370479;28;20238;-77
2021/12/31 08:39:37;;;;;;;0.85;0.85;;;;;;;;;;10362025;28;20613;-78
2021/12/31 08:44:38;;;;;;;1.45;1.30;;;;;;;;;;10347825;28;20231;-78
2021/12/31 08:49:39;;;;;;;1.58;0.70;;;;;;;;;;10366857;28;20396;-78
2021/12/31 08:54:40;;;;;;;1.52;0.98;;;;;;;;;;10363975;28;20259;-79
2021/12/31 08:59:42;;;;;;;0.88;0.70;;;;;;;;;;10355929;28;20215;-78
2021/12/31 09:04:43;;;;;;;0.95;0.70;;;;;;;;;;10367862;28;20232;-79
2021/12/31 09:09:44;;;;;;;2.45;0.80;;;;;;;;;;10365958;28;20247;-79
2021/12/31 09:14:45;;;;;;;3.63;0.60;;;;;;;;;;10364215;28;20195;-77
2021/12/31 09:19:46;;;;;;;1.00;0.70;;;;;;;;;;10357073;28;20200;-79
2021/12/31 09:24:48;;;;;;;1.73;0.50;;;;;;;;;;10359841;28;20592;-79
2021/12/31 09:29:49;;;;;;;0.60;0.60;;;;;;;;;;10365433;28;20227;-78
2021/12/31 09:34:50;;;;;;;0.63;0.50;;;;;;;;;;10367454;28;20352;-78
2021/12/31 09:39:51;;;;;;;0.80;0.80;;;;;;;;;;10355130;28;20207;-77
2021/12/31 09:44:52;;;;;;;0.88;0.63;;;;;;;;;;10370525;28;20215;-77
2021/12/31 09:49:53;;;;;;;0.52;0.52;;;;;;;;;;10367225;28;20219;-77
2021/12/31 09:54:54;;;;;;;0.80;0.80;;;;;;;;;;10361691;28;20234;-78
2021/12/31 10:00:01;;;;;;;0.60;0.60;;;;;;;;;;10353943;28;20199;-77
2021/12/31 10:05:03;;;;;;;1.15;0.60;;;;;;;;;;10349319;28;20330;-77
2021/12/31 10:10:07;;;;;;;0.88;0.52;;;;;;;;;;10367861;28;20227;-78
2021/12/31 10:15:08;;;;;;;0.98;0.50;;;;;;;;;;10375356;28;20286;-80
2021/12/31 10:20:09;;;;;;;0.40;0.40;;;;;;;;;;10377260;28;20192;-78
2021/12/31 10:25:18;;;;;;;1.10;0.50;;;;;;;;;;10378328;28;20210;-77
2021/12/31 10:30:22;;;;;;;3.28;0.50;;;;;;;;;;10379581;28;20315;-77
2021/12/31 10:35:23;;;;;;;3.47;0.65;;;;;;;;;;10356203;28;20597;-77
2021/12/31 10:40:29;;;;;;;0.45;0.45;;;;;;;;;;10368950;28;20214;-78
2021/12/31 10:45:30;;;;;;;0.55;0.55;;;;;;;;;;10373832;28;20257;-77
2021/12/31 10:50:32;;;;;;;1.10;0.60;;;;;;;;;;10360121;28;20211;-77
2021/12/31 10:55:39;;;;;;;1.00;0.50;;;;;;;;;;10371405;28;20204;-78
2021/12/31 11:00:44;;;;;;;0.88;0.85;;;;;;;;;;10373741;28;20686;-78
2021/12/31 11:05:45;;;;;;;0.65;0.60;;;;;;;;;;10368681;28;20842;-78
2021/12/31 11:10:47;;;;;;;1.85;0.50;;;;;;;;;;10364119;28;20203;-78
2021/12/31 11:15:50;;;;;;;1.02;0.35;;;;;;;;;;10357082;28;20211;-77
2021/12/31 11:20:52;;;;;;;1.00;0.50;;;;;;;;;;10359467;28;20231;-78
2021/12/31 11:25:54;;;;;;;0.40;0.40;;;;;;;;;;10348618;28;20234;-78
2021/12/31 11:30:56;;;;;;;0.73;0.70;;;;;;;;;;10358691;28;20412;-77
2021/12/31 11:35:59;;;;;;;1.48;0.50;;;;;;;;;;10361669;28;20287;-77
2021/12/31 11:41:03;;;;;;;1.05;0.50;;;;;;;;;;10344865;28;20208;-78
2021/12/31 11:46:19;;;;;;;0.95;0.50;;;;;;;;;;10361951;28;20315;-77
2021/12/31 11:51:34;;;;;;;0.32;0.32;;;;;;;;;;10374901;28;20195;-77
2021/12/31 11:56:47;;;;;;;1.65;0.50;;;;;;;;;;10359494;28;20207;-78
2021/12/31 12:02:06;;;;;;;0.40;0.40;;;;;;;;;;10334241;28;20208;-78
2021/12/31 12:07:09;;;;;;;0.50;0.50;;;;;;;;;;10354760;28;20224;-77
2021/12/31 12:12:11;;;;;;;0.90;0.57;;;;;;;;;;10355063;28;20204;-77
2021/12/31 12:17:12;;;;;;;1.10;0.50;;;;;;;;;;10364176;28;20297;-77
2021/12/31 12:22:33;;;;;;;0.60;0.60;;;;;;;;;;10347870;28;20203;-78
2021/12/31 12:27:34;;;;;;;0.77;0.45;;;;;;;;;;10359862;28;21087;-78
2021/12/31 12:32:51;;;;;;;0.73;0.68;;;;;;;;;;10355995;28;20212;-78
2021/12/31 12:38:00;;;;;;;0.52;0.52;;;;;;;;;;10355900;28;20212;-78
2021/12/31 12:43:01;;;;;;;0.43;0.43;;;;;;;;;;10335353;28;20235;-77
2021/12/31 12:48:02;;;;;;;1.42;0.60;;;;;;;;;;10344307;28;20215;-77
2021/12/31 12:53:03;;;;;;;2.17;0.65;;;;;;;;;;10360603;28;20258;-78
2021/12/31 12:58:04;;;;;;;1.25;0.40;;;;;;;;;;10360002;28;20200;-78
2021/12/31 13:03:06;;;;;;;0.50;0.50;;;;;;;;;;10350558;28;20216;-76
2021/12/31 13:08:07;;;;;;;0.60;0.60;;;;;;;;;;10354755;28;20838;-77
2021/12/31 13:13:10;;;;;;;1.48;0.57;;;;;;;;;;10350292;28;20223;-77
2021/12/31 13:18:11;;;;;;;1.05;1.05;;;;;;;;;;10366635;28;20208;-78
2021/12/31 13:23:18;;;;;;;0.50;0.50;;;;;;;;;;10370921;28;20302;-77
2021/12/31 13:28:21;;;;;;;1.38;1.38;;;;;;;;;;10353949;28;20216;-76
2021/12/31 13:33:32;;;;;;;1.58;0.68;;;;;;;;;;10348464;28;20243;-76
2021/12/31 13:38:53;;;;;;;1.67;0.60;;;;;;;;;;10352052;28;20204;-76
2021/12/31 13:43:58;;;;;;;1.05;0.77;;;;;;;;;;10356266;28;20203;-76
2021/12/31 13:49:07;;;;;;;0.68;0.68;;;;;;;;;;10349587;28;20215;-77
2021/12/31 13:54:09;;;;;;;0.50;0.50;;;;;;;;;;10355928;28;20326;-77
2021/12/31 13:59:25;;;;;;;0.50;0.50;;;;;;;;;;10334684;28;20215;-77
2021/12/31 14:04:26;;;;;;;0.60;0.50;;;;;;;;;;10354896;28;20219;-76
2021/12/31 14:09:27;;;;;;;2.85;0.65;;;;;;;;;;10364283;28;20290;-77
2021/12/31 14:14:28;;;;;;;1.65;0.50;;;;;;;;;;10340296;28;20262;-77
2021/12/31 14:19:32;;;;;;;1.38;0.70;;;;;;;;;;10355026;28;20208;-77
2021/12/31 14:24:34;;;;;;;0.80;0.80;;;;;;;;;;10336270;28;20307;-78
2021/12/31 14:29:35;;;;;;;0.88;0.70;;;;;;;;;;10354927;28;20220;-77
2021/12/31 14:34:36;;;;;;;1.75;0.90;;;;;;;;;;10350915;28;20219;-78
2021/12/31 14:39:49;;;;;;;0.80;0.60;;;;;;;;;;10338696;28;20230;-78
2021/12/31 14:44:50;;;;;;;0.70;0.70;;;;;;;;;;10362374;28;20208;-77
2021/12/31 14:49:51;;;;;;;0.80;0.80;;;;;;;;;;10341219;28;20314;-78
2021/12/31 14:54:52;;;;;;;3.33;0.73;;;;;;;;;;10356165;28;21030;-78
2021/12/31 14:59:54;;;;;;;1.05;1.00;;;;;;;;;;10365953;28;20294;-78
2021/12/31 15:04:55;;;;;;;1.98;0.98;;;;;;;;;;10364655;28;20239;-78
2021/12/31 15:09:56;;;;;;;2.53;0.90;;;;;;;;;;10364150;28;20219;-78
2021/12/31 15:14:57;;;;;;;0.70;0.60;;;;;;;;;;10362632;28;20265;-78
2021/12/31 15:19:58;;;;;;;0.60;0.60;;;;;;;;;;10368667;28;20310;-78
2021/12/31 15:25:02;;;;;;;3.13;0.60;;;;;;;;;;10365217;28;21226;-75
2021/12/31 15:30:03;;;;;;;0.88;0.73;;;;;;;;;;10366302;28;20236;-79
2021/12/31 15:35:04;;;;;;;0.80;0.70;;;;;;;;;;10368504;28;20262;-78
2021/12/31 15:40:06;;;;;;;0.80;0.80;;;;;;;;;;10362520;28;20207;-77
2021/12/31 15:45:07;;;;;;;0.73;0.73;;;;;;;;;;10363911;28;20200;-78
2021/12/31 15:50:08;;;;;;;1.98;0.60;;;;;;;;;;10353062;28;20243;-75
2021/12/31 15:55:09;;;;;;;1.65;0.70;;;;;;;;;;10336382;28;20350;-77
2021/12/31 16:00:10;;;;;;;1.38;0.70;;;;;;;;;;10361031;28;20290;-79
2021/12/31 16:05:15;;;;;;;1.40;1.40;;;;;;;;;;10369365;28;20616;-79
2021/12/31 16:10:17;;;;;;;1.27;0.80;;;;;;;;;;10357630;28;20831;-78
2021/12/31 16:15:18;;;;;;;2.15;1.23;;;;;;;;;;10363019;28;20194;-78
2021/12/31 16:20:19;;;;;;;0.70;0.70;;;;;;;;;;10354442;28;20204;-78
2021/12/31 16:25:20;;;;;;;4.30;1.02;;;;;;;;;;10365743;28;20216;-77
2021/12/31 16:30:21;;;;;;;1.50;0.80;;;;;;;;;;10352634;28;20207;-77
2021/12/31 16:35:22;;;;;;;1.10;0.70;;;;;;;;;;10352782;28;20204;-77
2021/12/31 16:40:23;;;;;;;0.93;0.93;;;;;;;;;;10352568;28;20204;-77
2021/12/31 16:45:24;;;;;;;1.10;1.00;;;;;;;;;;10353085;28;20286;-78
2021/12/31 16:50:25;;;;;;;0.90;0.90;;;;;;;;;;10337477;28;20851;-77
2021/12/31 16:55:27;;;;;;;0.70;0.70;;;;;;;;;;10357074;28;20286;-77
2021/12/31 17:00:28;;;;;;;4.43;1.17;;;;;;;;;;10357091;28;20283;-77
2021/12/31 17:05:29;;;;;;;1.98;0.82;;;;;;;;;;10359733;28;20532;-79
2021/12/31 17:10:35;;;;;;;0.70;0.70;;;;;;;;;;10360249;28;20207;-79
2021/12/31 17:15:36;;;;;;;2.20;1.88;;;;;;;;;;10363863;28;20215;-79
2021/12/31 17:20:37;;;;;;;1.85;1.60;;;;;;;;;;10342892;28;20199;-80
2021/12/31 17:25:38;;;;;;;3.15;1.80;;;;;;;;;;10364084;28;20218;-80
2021/12/31 17:30:39;;;;;;;2.67;2.45;;;;;;;;;;10364836;28;20219;-80
2021/12/31 17:35:40;;;;;;;2.50;2.30;;;;;;;;;;10362558;28;21414;-80
2021/12/31 17:40:43;;;;;;;4.05;3.67;;;;;;;;;;10344865;28;20223;-80
2021/12/31 17:45:44;;;;;;;5.10;3.22;;;;;;;;;;10368283;28;20677;-80
2021/12/31 17:50:45;;;;;;;4.90;4.60;;;;;;;;;;10347477;28;20199;-80
2021/12/31 17:55:47;;;;;;;5.82;5.50;;;;;;;;;;10358857;28;20208;-80
2021/12/31 18:00:48;;;;;;;5.50;5.22;;;;;;;;;;10366243;28;20215;-79
2021/12/31 18:05:49;;;;;;;7.65;7.25;;;;;;;;;;10362680;28;20932;-80
2021/12/31 18:10:50;;;;;;;6.85;6.32;;;;;;;;;;10367409;28;20200;-80
2021/12/31 18:15:51;;;;;;;5.53;5.13;;;;;;;;;;10364643;28;20298;-79
2021/12/31 18:20:52;;;;;;;6.78;6.45;;;;;;;;;;10368928;28;20636;-79
2021/12/31 18:25:53;;;;;;;9.82;9.00;;;;;;;;;;10366550;28;20224;-79
2021/12/31 18:30:54;;;;;;;6.95;6.28;;;;;;;;;;10374606;28;20216;-79
2021/12/31 18:35:55;;;;;;;7.10;6.55;;;;;;;;;;10377593;28;20219;-78
2021/12/31 18:40:56;;;;;;;5.43;5.13;;;;;;;;;;10364753;28;20361;-80
2021/12/31 18:46:07;;;;;;;6.57;5.97;;;;;;;;;;10378488;28;20879;-79
2021/12/31 18:51:09;;;;;;;6.35;5.90;;;;;;;;;;10385334;28;20287;-78
2021/12/31 18:56:10;;;;;;;6.40;5.90;;;;;;;;;;10362969;28;20208;-77
2021/12/31 19:01:11;;;;;;;6.55;6.15;;;;;;;;;;10353377;28;20844;-78
2021/12/31 19:06:13;;;;;;;5.22;4.93;;;;;;;;;;10375010;28;20251;-78
2021/12/31 19:11:14;;;;;;;5.75;5.28;;;;;;;;;;10370863;28;20692;-78
2021/12/31 19:16:15;;;;;;;5.95;5.65;;;;;;;;;;10377831;28;20201;-78
2021/12/31 19:21:16;;;;;;;8.48;7.47;;;;;;;;;;10374260;28;20868;-78
2021/12/31 19:26:17;;;;;;;6.63;6.22;;;;;;;;;;10359989;28;20220;-77
2021/12/31 19:31:18;;;;;;;8.82;8.20;;;;;;;;;;10362346;28;20199;-78
2021/12/31 19:36:19;;;;;;;7.82;7.10;;;;;;;;;;10351051;28;20200;-78
2021/12/31 19:41:21;;;;;;;7.85;7.32;;;;;;;;;;10362666;28;20196;-78
2021/12/31 19:46:22;;;;;;;7.30;6.50;;;;;;;;;;10358886;28;20352;-78
2021/12/31 19:51:23;;;;;;;9.43;7.35;;;;;;;;;;10360393;28;20200;-78
2021/12/31 19:56:26;;;;;;;11.02;6.63;;;;;;;;;;10352367;28;20541;-78
2021/12/31 20:01:27;;;;;;;7.75;7.15;;;;;;;;;;10362854;28;20223;-78
2021/12/31 20:06:28;;;;;;;7.70;7.22;;;;;;;;;;10359685;28;20220;-78
2021/12/31 20:11:29;;;;;;;8.65;7.85;;;;;;;;;;10356032;28;21000;-78
2021/12/31 20:16:30;;;;;;;8.93;8.20;;;;;;;;;;10355911;28;20266;-78
2021/12/31 20:21:31;;;;;;;9.50;8.65;;;;;;;;;;10341866;28;20200;-77
2021/12/31 20:26:32;;;;;;;8.77;7.85;;;;;;;;;;10359432;28;20277;-78
2021/12/31 20:31:33;;;;;;;10.05;9.15;;;;;;;;;;10359101;28;20212;-77
2021/12/31 20:36:35;;;;;;;8.63;7.93;;;;;;;;;;10356506;28;20218;-77
2021/12/31 20:41:36;;;;;;;9.00;8.30;;;;;;;;;;10342388;28;20203;-78
2021/12/31 20:46:37;;;;;;;10.50;9.90;;;;;;;;;;10356307;28;20230;-78
2021/12/31 20:51:38;;;;;;;11.25;10.15;;;;;;;;;;10352479;28;20247;-77
2021/12/31 20:56:39;;;;;;;13.70;12.15;;;;;;;;;;10354116;28;20299;-78
2021/12/31 21:01:40;;;;;;;15.38;13.88;;;;;;;;;;10356671;28;20230;-78
2021/12/31 21:06:41;;;;;;;14.90;13.50;;;;;;;;;;10361170;28;20809;-79
2021/12/31 21:11:42;;;;;;;18.42;13.65;;;;;;;;;;10358923;28;20207;-78
2021/12/31 21:16:44;;;;;;;17.25;15.60;;;;;;;;;;10358979;28;20203;-78
2021/12/31 21:21:45;;;;;;;16.63;15.05;;;;;;;;;;10343259;28;20211;-78
2021/12/31 21:26:46;;;;;;;14.05;12.65;;;;;;;;;;10360893;28;20219;-78
2021/12/31 21:31:47;;;;;;;15.23;13.80;;;;;;;;;;10352978;28;20211;-78
2021/12/31 21:36:48;;;;;;;14.95;13.45;;;;;;;;;;10353776;28;20207;-77
2021/12/31 21:41:49;;;;;;;13.65;12.43;;;;;;;;;;10360016;28;20199;-77
2021/12/31 21:46:50;;;;;;;15.40;12.82;;;;;;;;;;10362409;28;20242;-77
2021/12/31 21:51:51;;;;;;;19.38;12.93;;;;;;;;;;10352919;28;20220;-77
2021/12/31 21:56:52;;;;;;;13.13;11.00;;;;;;;;;;10354162;28;20281;-78
2021/12/31 22:01:53;;;;;;;11.07;10.05;;;;;;;;;;10352546;28;20226;-77
2021/12/31 22:06:56;;;;;;;14.38;12.98;;;;;;;;;;10362417;28;20226;-77
2021/12/31 22:11:57;;;;;;;17.45;15.77;;;;;;;;;;10338878;28;20211;-77
2021/12/31 22:16:58;;;;;;;17.80;15.95;;;;;;;;;;10357286;28;20203;-78
2021/12/31 22:21:59;;;;;;;16.92;15.27;;;;;;;;;;10351253;28;20620;-77
2021/12/31 22:27:00;;;;;;;16.85;15.30;;;;;;;;;;10348720;28;20218;-78
2021/12/31 22:32:01;;;;;;;18.02;16.35;;;;;;;;;;10351245;28;20219;-78
2021/12/31 22:37:02;;;;;;;28.50;25.30;;;;;;;;;;10334859;28;20203;-77
2021/12/31 22:42:03;;;;;;;18.80;16.80;;;;;;;;;;10344974;28;20208;-77
2021/12/31 22:47:08;;;;;;;20.67;18.52;;;;;;;;;;10342844;28;20264;-77
2021/12/31 22:52:09;;;;;;;18.48;16.58;;;;;;;;;;10342869;28;20212;-78
2021/12/31 22:57:10;;;;;;;18.77;16.75;;;;;;;;;;10326895;28;20207;-78
2021/12/31 23:02:11;;;;;;;28.33;18.55;;;;;;;;;;10342446;28;20291;-77
2021/12/31 23:07:12;;;;;;;18.85;17.05;;;;;;;;;;10322742;28;20220;-77
2021/12/31 23:12:16;;;;;;;17.95;16.00;;;;;;;;;;10337858;28;20207;-77
2021/12/31 23:17:17;;;;;;;26.73;22.42;;;;;;;;;;10340509;28;20208;-77
2021/12/31 23:22:19;;;;;;;40.88;30.10;;;;;;;;;;10352740;28;20353;-77
2021/12/31 23:27:22;;;;;;;26.30;22.10;;;;;;;;;;10347212;28;20224;-77
2021/12/31 23:32:23;;;;;;;35.88;28.75;;;;;;;;;;10344772;28;20216;-77
2021/12/31 23:37:24;;;;;;;25.08;20.10;;;;;;;;;;10351358;28;20813;-77
2021/12/31 23:42:37;;;;;;;20.65;17.60;;;;;;;;;;10355444;28;20286;-77
2021/12/31 23:47:38;;;;;;;26.15;19.20;;;;;;;;;;10351093;28;20224;-77
2021/12/31 23:52:40;;;;;;;33.58;24.65;;;;;;;;;;10354530;28;20215;-77
2021/12/31 23:57:42;;;;;;;18.08;14.27;;;;;;;;;;10351866;28;20204;-77
